createdAt,value
2024-01-07T00:00:01.946Z,101625.66
2024-01-07T00:00:45.773Z,101632.94
2024-01-07T00:02:44.804Z,101628.94
2024-01-07T00:06:13.643Z,101628.09
2024-01-07T00:07:00.629Z,101633.06
2024-01-07T00:07:52.996Z,101634.28
2024-01-07T00:12:34.309Z,101640.63
2024-01-07T00:14:20.436Z,101644.91
2024-01-07T00:15:39.753Z,101639.91
2024-01-07T00:16:53.018Z,101644.31
2024-01-07T00:18:22.990Z,101648.16
2024-01-07T00:19:15.399Z,101652.56
2024-01-07T00:20:24.392Z,101647.31
2024-01-07T00:21:13.163Z,101652.91
2024-01-07T00:21:56.621Z,101647.53
2024-01-07T00:22:46.873Z,101659.81
2024-01-07T00:27:26.578Z,101653.03
2024-01-07T00:28:10.328Z,101657.69
2024-01-07T00:28:55.277Z,101656.22
2024-01-07T00:29:45.431Z,101657.44
2024-01-07T00:31:50.301Z,101659.94
2024-01-07T00:32:35.910Z,101659.94
2024-01-07T00:33:30.058Z,101661.00
2024-01-07T00:34:36.740Z,101658.91
2024-01-07T00:35:43.387Z,101663.50
2024-01-07T00:36:55.065Z,101658.41
2024-01-07T00:38:05.800Z,101662.69
2024-01-07T00:38:51.329Z,101667.09
2024-01-07T00:40:18.430Z,101671.50
2024-01-07T00:41:31.937Z,101676.03
2024-01-07T00:42:12.057Z,101668.03
2024-01-07T00:43:16.857Z,101675.63
2024-01-07T00:44:23.629Z,101671.63
2024-01-07T00:45:44.337Z,101672.19
2024-01-07T00:46:30.620Z,101683.75
2024-01-07T00:47:38.130Z,101674.47
2024-01-07T00:48:35.292Z,101676.97
2024-01-07T00:49:49.198Z,101681.97
2024-01-07T00:50:54.849Z,101682.72
2024-01-07T00:51:45.197Z,101676.78
2024-01-07T00:52:42.510Z,101675.25
2024-01-07T00:53:32.240Z,101679.38
2024-01-07T00:54:41.772Z,101682.72
2024-01-07T00:57:00.793Z,101681.88
2024-01-07T00:57:43.249Z,101679.13
2024-01-07T00:58:46.852Z,101679.13
2024-01-07T01:00:33.989Z,101686.88
2024-01-07T01:01:29.269Z,101683.63
2024-01-07T01:02:27.626Z,101687.66
2024-01-07T01:04:17.751Z,101688.97
2024-01-07T01:05:31.717Z,101690.03
2024-01-07T01:06:30.187Z,101694.09
2024-01-07T01:07:48.042Z,101689.94
2024-01-07T01:08:52.782Z,101692.94
2024-01-07T01:09:48.336Z,101700.41
2024-01-07T01:10:50.248Z,101694.91
2024-01-07T01:11:36.603Z,101696.00
2024-01-07T01:12:23.068Z,101697.91
2024-01-07T01:15:51.064Z,101706.47
2024-01-07T01:16:40.036Z,101701.75
2024-01-07T01:18:26.498Z,101705.06
2024-01-07T01:20:19.568Z,101708.38
2024-01-07T01:21:02.623Z,101711.25
2024-01-07T01:21:54.047Z,101704.22
2024-01-07T01:22:48.395Z,101711.97
2024-01-07T01:23:59.018Z,101712.22
2024-01-07T01:24:49.410Z,101714.69
2024-01-07T01:25:35.922Z,101710.53
2024-01-07T01:28:23.952Z,101714.88
2024-01-07T01:28:49.994Z,101719.28
2024-01-07T01:31:03.367Z,101719.16
2024-01-07T01:33:30.717Z,101722.00
2024-01-07T01:37:45.040Z,101733.91
2024-01-07T01:38:55.912Z,101731.41
2024-01-07T01:40:15.136Z,101727.00
2024-01-07T01:41:04.269Z,101735.09
2024-01-07T01:42:40.248Z,101738.75
2024-01-07T01:44:00.343Z,101729.75
2024-01-07T01:45:24.927Z,101744.81
2024-01-07T01:46:10.272Z,101737.72
2024-01-07T01:47:09.248Z,101745.44
2024-01-07T01:47:47.811Z,101741.03
2024-01-07T01:48:51.598Z,101741.28
2024-01-07T01:49:53.870Z,101748.31
2024-01-07T01:51:47.927Z,101747.69
2024-01-07T01:52:29.211Z,101750.06
2024-01-07T01:55:00.184Z,101743.41
2024-01-07T01:56:08.339Z,101752.22
2024-01-07T01:57:13.315Z,101750.53
2024-01-07T01:57:57.470Z,101748.63
2024-01-07T01:58:52.301Z,101748.63
2024-01-07T02:00:09.735Z,101755.28
2024-01-07T02:01:34.737Z,101761.59
2024-01-07T02:03:52.453Z,101758.28
2024-01-07T02:05:48.503Z,101763.25
2024-01-07T02:07:06.800Z,101757.44
2024-01-07T02:09:48.905Z,101763.38
2024-01-07T02:11:07.676Z,101773.50
2024-01-07T02:11:51.241Z,101763.75
2024-01-07T02:12:51.831Z,101765.75
2024-01-07T02:14:55.886Z,101770.53
2024-01-07T02:15:53.406Z,101777.66
2024-01-07T02:18:04.892Z,101779.34
2024-01-07T02:18:57.624Z,101779.56
2024-01-07T02:19:53.202Z,101781.69
2024-01-07T02:21:11.831Z,101777.19
2024-01-07T02:23:36.638Z,101781.13
2024-01-07T02:26:02.143Z,101781.47
2024-01-07T02:27:25.641Z,101785.28
2024-01-07T02:28:33.417Z,101781.00
2024-01-07T02:29:34.532Z,101783.63
2024-01-07T02:30:09.402Z,101779.34
2024-01-07T02:31:03.156Z,101788.16
2024-01-07T02:32:08.643Z,101787.19
2024-01-07T02:33:03.060Z,101787.78
2024-01-07T02:34:02.046Z,101793.03
2024-01-07T02:34:39.991Z,101786.25
2024-01-07T02:35:54.782Z,101788.88
2024-01-07T02:36:47.688Z,101799.91
2024-01-07T02:37:31.575Z,101792.19
2024-01-07T02:40:32.987Z,101793.63
2024-01-07T02:41:37.576Z,101799.09
2024-01-07T02:42:32.984Z,101804.09
2024-01-07T02:43:19.705Z,101797.78
2024-01-07T02:44:20.147Z,101795.03
2024-01-07T02:45:35.038Z,101801.34
2024-01-07T02:48:59.370Z,101798.63
2024-01-07T02:50:12.577Z,101805.75
2024-01-07T02:50:44.711Z,101806.09
2024-01-07T02:51:58.333Z,101803.47
2024-01-07T02:52:53.362Z,101796.47
2024-01-07T02:53:44.118Z,101806.59
2024-01-07T02:54:58.045Z,101805.75
2024-01-07T02:57:51.618Z,101800.63
2024-01-07T02:58:55.787Z,101807.66
2024-01-07T02:59:52.643Z,101808.59
2024-01-07T03:00:52.953Z,101799.81
2024-01-07T03:01:59.854Z,101799.69
2024-01-07T03:02:52.470Z,101802.19
2024-01-07T03:04:50.914Z,101803.84
2024-01-07T03:05:47.808Z,101800.03
2024-01-07T03:06:28.856Z,101802.66
2024-01-07T03:07:23.112Z,101803.00
2024-01-07T03:08:38.570Z,101811.69
2024-01-07T03:09:45.776Z,101817.41
2024-01-07T03:10:43.802Z,101805.50
2024-01-07T03:11:23.740Z,101812.41
2024-01-07T03:13:19.247Z,101811.22
2024-01-07T03:16:34.205Z,101805.03
2024-01-07T03:17:39.844Z,101807.41
2024-01-07T03:19:32.579Z,101811.56
2024-01-07T03:20:26.884Z,101813.59
2024-01-07T03:21:37.657Z,101816.22
2024-01-07T03:22:39.576Z,101815.72
2024-01-07T03:23:54.822Z,101815.72
2024-01-07T03:24:35.708Z,101814.78
2024-01-07T03:25:47.064Z,101811.31
2024-01-07T03:27:01.588Z,101813.47
2024-01-07T03:27:59.259Z,101818.09
2024-01-07T03:28:30.919Z,101821.31
2024-01-07T03:29:03.393Z,101818.09
2024-01-07T03:29:35.467Z,101820.13
2024-01-07T03:30:07.787Z,101817.41
2024-01-07T03:30:39.676Z,101822.75
2024-01-07T03:31:14.821Z,101824.28
2024-01-07T03:31:46.676Z,101820.84
2024-01-07T03:32:19.100Z,101822.50
2024-01-07T03:32:50.832Z,101825.94
2024-01-07T03:33:22.536Z,101831.44
2024-01-07T03:33:54.258Z,101819.31
2024-01-07T03:34:26.058Z,101822.28
2024-01-07T03:34:57.923Z,101823.09
2024-01-07T03:35:29.637Z,101828.09
2024-01-07T03:36:01.320Z,101824.78
2024-01-07T03:36:32.985Z,101823.09
2024-01-07T03:37:04.749Z,101833.09
2024-01-07T03:37:36.720Z,101828.34
2024-01-07T03:38:08.308Z,101828.59
2024-01-07T03:38:41.070Z,101824.06
2024-01-07T03:39:12.717Z,101826.19
2024-01-07T03:39:45.561Z,101828.81
2024-01-07T03:40:17.197Z,101823.09
2024-01-07T03:40:48.808Z,101823.81
2024-01-07T03:41:21.345Z,101832.03
2024-01-07T03:41:56.494Z,101833.81
2024-01-07T03:42:28.094Z,101827.25
2024-01-07T03:42:59.797Z,101822.28
2024-01-07T03:43:31.634Z,101829.28
2024-01-07T03:44:05.542Z,101831.06
2024-01-07T03:44:37.233Z,101829.41
2024-01-07T03:45:09.245Z,101830.25
2024-01-07T03:45:40.802Z,101822.63
2024-01-07T03:46:12.458Z,101826.78
2024-01-07T03:46:44.173Z,101829.28
2024-01-07T03:47:15.821Z,101833.69
2024-01-07T03:47:47.551Z,101830.47
2024-01-07T03:48:20.849Z,101831.06
2024-01-07T03:48:52.560Z,101832.16
2024-01-07T03:49:24.384Z,101831.91
2024-01-07T03:49:55.987Z,101839.75
2024-01-07T03:50:27.575Z,101827.63
2024-01-07T03:50:59.282Z,101836.44
2024-01-07T03:51:30.944Z,101832.16
2024-01-07T03:52:04.546Z,101828.81
2024-01-07T03:52:36.706Z,101832.16
2024-01-07T03:53:08.418Z,101840.81
2024-01-07T03:53:40.061Z,101839.28
2024-01-07T03:54:11.677Z,101830.69
2024-01-07T03:54:43.433Z,101827.03
2024-01-07T03:55:15.181Z,101839.28
2024-01-07T03:55:46.834Z,101837.25
2024-01-07T03:56:18.403Z,101832.16
2024-01-07T03:56:49.974Z,101827.75
2024-01-07T03:57:22.141Z,101832.16
2024-01-07T03:57:53.856Z,101828.81
2024-01-07T03:58:25.558Z,101834.88
2024-01-07T03:58:57.231Z,101833.09
2024-01-07T03:59:29.328Z,101834.88
2024-01-07T04:00:00.910Z,101834.06
2024-01-07T04:00:33.136Z,101837.50
2024-01-07T04:01:05.438Z,101834.88
2024-01-07T04:01:37.384Z,101837.50
2024-01-07T04:02:09.119Z,101834.75
2024-01-07T04:02:40.728Z,101835.47
2024-01-07T04:03:12.384Z,101842.72
2024-01-07T04:03:44.050Z,101836.28
2024-01-07T04:04:15.858Z,101834.63
2024-01-07T04:04:47.531Z,101833.44
2024-01-07T04:05:19.278Z,101831.16
2024-01-07T04:05:50.951Z,101833.53
2024-01-07T04:06:22.597Z,101833.78
2024-01-07T04:06:54.324Z,101838.06
2024-01-07T04:07:25.883Z,101825.81
2024-01-07T04:07:57.494Z,101839.84
2024-01-07T04:08:29.746Z,101832.13
2024-01-07T04:09:01.296Z,101836.16
2024-01-07T04:09:32.903Z,101838.53
2024-01-07T04:10:04.960Z,101837.00
2024-01-07T04:10:36.679Z,101834.25
2024-01-07T04:11:08.350Z,101845.34
2024-01-07T04:11:41.977Z,101842.84
2024-01-07T04:12:13.622Z,101849.00
2024-01-07T04:12:45.778Z,101847.34
2024-01-07T04:13:17.515Z,101843.06
2024-01-07T04:13:49.169Z,101842.22
2024-01-07T04:14:20.794Z,101842.81
2024-01-07T04:14:52.397Z,101850.44
2024-01-07T04:15:24.569Z,101848.53
2024-01-07T04:15:56.173Z,101843.53
2024-01-07T04:16:27.803Z,101845.19
2024-01-07T04:16:59.429Z,101848.53
2024-01-07T04:17:31.124Z,101848.75
2024-01-07T04:18:04.597Z,101842.47
2024-01-07T04:18:36.385Z,101848.28
2024-01-07T04:19:08.230Z,101848.28
2024-01-07T04:19:40.022Z,101848.28
2024-01-07T04:20:14.240Z,101857.78
2024-01-07T04:20:45.837Z,101849.94
2024-01-07T04:21:17.441Z,101854.00
2024-01-07T04:21:49.152Z,101858.38
2024-01-07T04:22:20.871Z,101853.41
2024-01-07T04:22:52.467Z,101850.44
2024-01-07T04:23:24.080Z,101856.59
2024-01-07T04:23:55.665Z,101857.56
2024-01-07T04:24:27.374Z,101852.94
2024-01-07T04:24:59.102Z,101859.81
2024-01-07T04:25:30.762Z,101870.41
2024-01-07T04:26:02.426Z,101865.06
2024-01-07T04:26:34.125Z,101858.50
2024-01-07T04:27:05.752Z,101864.69
2024-01-07T04:27:40.240Z,101860.16
2024-01-07T04:28:12.178Z,101862.78
2024-01-07T04:28:44.157Z,101862.78
2024-01-07T04:29:15.861Z,101868.50
2024-01-07T04:29:47.869Z,101864.69
2024-01-07T04:30:19.684Z,101873.25
2024-01-07T04:30:51.725Z,101866.34
2024-01-07T04:31:23.437Z,101861.38
2024-01-07T04:31:55.189Z,101863.50
2024-01-07T04:32:26.928Z,101867.53
2024-01-07T04:32:58.539Z,101862.53
2024-01-07T04:33:30.301Z,101864.44
2024-01-07T04:34:02.172Z,101869.56
2024-01-07T04:34:33.960Z,101871.22
2024-01-07T04:35:07.397Z,101869.44
2024-01-07T04:35:39.235Z,101865.41
2024-01-07T04:36:10.846Z,101867.28
2024-01-07T04:36:42.737Z,101863.00
2024-01-07T04:37:14.413Z,101877.41
2024-01-07T04:37:46.195Z,101867.28
2024-01-07T04:38:17.801Z,101875.13
2024-01-07T04:38:49.391Z,101876.69
2024-01-07T04:39:21.322Z,101873.97
2024-01-07T04:39:53.036Z,101873.59
2024-01-07T04:40:24.622Z,101876.31
2024-01-07T04:40:56.295Z,101877.75
2024-01-07T04:41:27.920Z,101880.13
2024-01-07T04:41:59.524Z,101878.00
2024-01-07T04:42:31.257Z,101871.81
2024-01-07T04:43:02.936Z,101883.09
2024-01-07T04:43:36.321Z,101878.72
2024-01-07T04:44:07.886Z,101875.13
2024-01-07T04:44:39.485Z,101880.50
2024-01-07T04:45:11.155Z,101880.13
2024-01-07T04:45:42.838Z,101877.88
2024-01-07T04:46:15.016Z,101881.31
2024-01-07T04:46:48.725Z,101878.59
2024-01-07T04:47:31.242Z,101887.97
2024-01-07T04:48:03.109Z,101882.50
2024-01-07T04:48:34.995Z,101885.59
2024-01-07T04:49:07.442Z,101883.81
2024-01-07T04:49:39.649Z,101887.97
2024-01-07T04:50:11.406Z,101887.75
2024-01-07T04:50:43.124Z,101886.56
2024-01-07T04:51:14.900Z,101890.84
2024-01-07T04:51:46.590Z,101890.47
2024-01-07T04:52:18.217Z,101886.91
2024-01-07T04:52:49.953Z,101891.31
2024-01-07T04:53:21.577Z,101887.03
2024-01-07T04:53:53.196Z,101884.41
2024-01-07T04:54:25.094Z,101887.75
2024-01-07T04:54:57.704Z,101893.81
2024-01-07T04:55:30.931Z,101892.50
2024-01-07T04:56:02.500Z,101887.97
2024-01-07T04:56:34.595Z,101894.88
2024-01-07T04:57:06.191Z,101898.09
2024-01-07T04:57:37.944Z,101892.75
2024-01-07T04:58:09.659Z,101906.53
2024-01-07T04:58:41.362Z,101899.88
2024-01-07T04:59:13.106Z,101900.69
2024-01-07T04:59:44.914Z,101905.09
2024-01-07T05:00:16.811Z,101905.09
2024-01-07T05:00:48.490Z,101899.88
2024-01-07T05:01:20.251Z,101897.72
2024-01-07T05:01:51.996Z,101903.66
2024-01-07T05:02:24.476Z,101902.22
2024-01-07T05:02:56.533Z,101904.00
2024-01-07T05:03:28.404Z,101900.09
2024-01-07T05:04:02.374Z,101904.63
2024-01-07T05:04:36.675Z,101907.22
2024-01-07T05:05:11.379Z,101907.72
2024-01-07T05:05:43.044Z,101914.84
2024-01-07T05:06:14.722Z,101915.31
2024-01-07T05:06:46.560Z,101912.00
2024-01-07T05:07:18.317Z,101917.47
2024-01-07T05:07:49.949Z,101911.41
2024-01-07T05:08:24.984Z,101917.81
2024-01-07T05:08:58.150Z,101917.81
2024-01-07T05:09:29.913Z,101912.81
2024-01-07T05:10:01.560Z,101911.16
2024-01-07T05:10:33.414Z,101918.06
2024-01-07T05:11:05.400Z,101912.56
2024-01-07T05:11:41.026Z,101916.13
2024-01-07T05:12:12.870Z,101916.25
2024-01-07T05:12:44.712Z,101914.34
2024-01-07T05:13:16.720Z,101920.66
2024-01-07T05:13:48.384Z,101920.53
2024-01-07T05:14:20.295Z,101924.81
2024-01-07T05:14:51.995Z,101923.16
2024-01-07T05:15:23.625Z,101926.91
2024-01-07T05:15:55.503Z,101927.97
2024-01-07T05:16:27.234Z,101927.88
2024-01-07T05:16:58.860Z,101933.22
2024-01-07T05:17:30.795Z,101920.03
2024-01-07T05:18:03.565Z,101917.09
2024-01-07T05:18:35.479Z,101926.72
2024-01-07T05:19:07.342Z,101926.91
2024-01-07T05:19:41.998Z,101925.47
2024-01-07T05:20:16.516Z,101916.69
2024-01-07T05:20:48.296Z,101928.81
2024-01-07T05:21:20.088Z,101927.88
2024-01-07T05:21:51.788Z,101925.38
2024-01-07T05:22:23.688Z,101927.97
2024-01-07T05:22:55.278Z,101933.22
2024-01-07T05:23:26.872Z,101932.16
2024-01-07T05:23:58.416Z,101926.91
2024-01-07T05:24:31.747Z,101933.84
2024-01-07T05:25:05.210Z,101932.16
2024-01-07T05:25:36.803Z,101930.41
2024-01-07T05:26:08.403Z,101936.47
2024-01-07T05:26:40.866Z,101930.72
2024-01-07T05:27:12.545Z,101930.72
2024-01-07T05:27:44.295Z,101940.94
2024-01-07T05:28:16.054Z,101935.72
2024-01-07T05:28:47.751Z,101934.03
2024-01-07T05:29:19.347Z,101948.78
2024-01-07T05:29:51.110Z,101942.84
2024-01-07T05:30:23.489Z,101936.88
2024-01-07T05:30:55.177Z,101943.78
2024-01-07T05:31:26.869Z,101943.06
2024-01-07T05:31:59.284Z,101947.22
2024-01-07T05:32:30.984Z,101941.56
2024-01-07T05:33:02.848Z,101944.50
2024-01-07T05:33:34.790Z,101942.84
2024-01-07T05:34:06.708Z,101943.88
2024-01-07T05:34:38.499Z,101944.72
2024-01-07T05:35:10.229Z,101943.66
2024-01-07T05:35:41.869Z,101950.56
2024-01-07T05:36:13.764Z,101951.38
2024-01-07T05:36:45.366Z,101950.66
2024-01-07T05:37:17.063Z,101946.16
2024-01-07T05:37:48.733Z,101947.81
2024-01-07T05:38:20.486Z,101954.13
2024-01-07T05:38:52.159Z,101953.06
2024-01-07T05:39:23.843Z,101947.00
2024-01-07T05:39:55.489Z,101949.72
2024-01-07T05:40:27.075Z,101949.72
2024-01-07T05:40:58.647Z,101953.91
2024-01-07T05:41:30.303Z,101950.34
2024-01-07T05:42:01.984Z,101955.66
2024-01-07T05:42:33.661Z,101949.00
2024-01-07T05:43:05.471Z,101949.94
2024-01-07T05:43:37.641Z,101952.22
2024-01-07T05:44:09.713Z,101955.59
2024-01-07T05:44:41.776Z,101956.53
2024-01-07T05:45:13.366Z,101962.06
2024-01-07T05:45:45.042Z,101956.84
2024-01-07T05:46:16.710Z,101967.06
2024-01-07T05:46:48.311Z,101967.31
2024-01-07T05:47:19.977Z,101963.75
2024-01-07T05:47:53.081Z,101961.13
2024-01-07T05:48:24.815Z,101957.06
2024-01-07T05:48:57.083Z,101968.25
2024-01-07T05:49:28.864Z,101970.16
2024-01-07T05:50:00.591Z,101966.69
2024-01-07T05:50:32.244Z,101973.38
2024-01-07T05:51:03.970Z,101971.59
2024-01-07T05:51:40.009Z,101970.88
2024-01-07T05:52:11.763Z,101974.44
2024-01-07T05:52:43.699Z,101970.16
2024-01-07T05:53:15.255Z,101972.53
2024-01-07T05:53:47.393Z,101971.09
2024-01-07T05:54:18.974Z,101965.03
2024-01-07T05:54:50.687Z,101977.03
2024-01-07T05:55:22.455Z,101973.00
2024-01-07T05:55:54.032Z,101973.00
2024-01-07T05:56:25.643Z,101979.88
2024-01-07T05:56:57.259Z,101965.25
2024-01-07T05:57:29.842Z,101976.78
2024-01-07T05:58:01.563Z,101974.66
2024-01-07T05:58:33.433Z,101972.75
2024-01-07T05:59:05.001Z,101978.81
2024-01-07T05:59:36.616Z,101980.59
2024-01-07T06:00:08.848Z,101966.59
2024-01-07T06:00:44.341Z,101978.81
2024-01-07T06:01:22.530Z,101976.09
2024-01-07T06:01:59.410Z,101980.38
2024-01-07T06:02:31.085Z,101982.16
2024-01-07T06:03:03.118Z,101979.66
2024-01-07T06:03:35.002Z,101976.69
2024-01-07T06:04:06.948Z,101982.03
2024-01-07T06:04:39.197Z,101982.28
2024-01-07T06:05:10.877Z,101977.75
2024-01-07T06:05:42.528Z,101983.94
2024-01-07T06:06:14.794Z,101978.72
2024-01-07T06:06:46.898Z,101978.59
2024-01-07T06:07:19.485Z,101987.91
2024-01-07T06:07:51.255Z,101982.75
2024-01-07T06:08:22.932Z,101993.34
2024-01-07T06:08:54.543Z,101984.88
2024-01-07T06:09:26.249Z,101983.00
2024-01-07T06:09:57.910Z,101989.88
2024-01-07T06:10:29.554Z,101989.41
2024-01-07T06:11:01.154Z,101981.44
2024-01-07T06:11:32.804Z,101988.44
2024-01-07T06:12:04.682Z,101987.00
2024-01-07T06:12:36.348Z,101994.50
2024-01-07T06:13:08.166Z,101995.22
2024-01-07T06:13:39.815Z,101990.34
2024-01-07T06:14:11.436Z,101987.22
2024-01-07T06:14:43.036Z,101997.47
2024-01-07T06:15:14.644Z,101990.56
2024-01-07T06:15:46.462Z,101995.78
2024-01-07T06:16:18.191Z,101994.13
2024-01-07T06:16:49.944Z,101998.41
2024-01-07T06:17:21.618Z,101995.91
2024-01-07T06:17:53.268Z,101996.63
2024-01-07T06:18:24.999Z,101989.13
2024-01-07T06:18:56.996Z,101995.31
2024-01-07T06:19:28.883Z,101998.53
2024-01-07T06:20:00.829Z,102002.81
2024-01-07T06:20:32.467Z,101995.91
2024-01-07T06:21:07.069Z,101995.19
2024-01-07T06:21:38.691Z,102001.25
2024-01-07T06:22:10.405Z,102000.06
2024-01-07T06:22:42.084Z,102007.91
2024-01-07T06:23:13.737Z,102003.53
2024-01-07T06:23:46.030Z,102010.03
2024-01-07T06:24:17.719Z,102002.91
2024-01-07T06:24:49.486Z,102008.16
2024-01-07T06:25:21.644Z,102006.47
2024-01-07T06:25:53.343Z,102012.53
2024-01-07T06:26:24.902Z,102008.03
2024-01-07T06:26:56.587Z,102014.81
2024-01-07T06:27:28.219Z,102014.81
2024-01-07T06:27:59.855Z,102014.81
2024-01-07T06:28:32.634Z,102016.47
2024-01-07T06:29:04.402Z,102016.47
2024-01-07T06:29:36.111Z,102011.97
2024-01-07T06:30:08.520Z,102023.59
2024-01-07T06:30:40.214Z,102016.47
2024-01-07T06:31:12.064Z,102021.59
2024-01-07T06:31:46.056Z,102026.00
2024-01-07T06:32:17.753Z,102028.59
2024-01-07T06:32:49.859Z,102023.38
2024-01-07T06:33:22.106Z,102030.50
2024-01-07T06:33:54.287Z,102024.78
2024-01-07T06:34:26.070Z,102025.50
2024-01-07T06:34:57.763Z,102031.56
2024-01-07T06:35:29.642Z,102039.06
2024-01-07T06:36:02.079Z,102033.59
2024-01-07T06:36:34.008Z,102034.06
2024-01-07T06:37:06.791Z,102039.28
2024-01-07T06:37:38.525Z,102034.06
2024-01-07T06:38:10.229Z,102040.34
2024-01-07T06:38:41.876Z,102033.56
2024-01-07T06:39:13.993Z,102037.63
2024-01-07T06:39:45.623Z,102040.13
2024-01-07T06:40:17.311Z,102039.28
2024-01-07T06:40:48.973Z,102035.72
2024-01-07T06:41:20.642Z,102044.50
2024-01-07T06:41:52.258Z,102049.75
2024-01-07T06:42:23.885Z,102055.91
2024-01-07T06:42:55.573Z,102055.19
2024-01-07T06:43:28.449Z,102039.72
2024-01-07T06:44:00.039Z,102053.31
2024-01-07T06:44:31.732Z,102051.63
2024-01-07T06:45:04.301Z,102047.13
2024-01-07T06:45:35.893Z,102050.47
2024-01-07T06:46:07.560Z,102045.47
2024-01-07T06:46:39.333Z,102048.78
2024-01-07T06:47:10.907Z,102044.75
2024-01-07T06:47:42.552Z,102063.53
2024-01-07T06:48:14.336Z,102048.91
2024-01-07T06:48:48.711Z,102058.31
2024-01-07T06:49:22.495Z,102056.84
2024-01-07T06:49:54.199Z,102055.41
2024-01-07T06:50:25.881Z,102062.41
2024-01-07T06:50:58.502Z,102056.34
2024-01-07T06:51:30.147Z,102056.59
2024-01-07T06:52:01.818Z,102062.75
2024-01-07T06:52:33.554Z,102061.69
2024-01-07T06:53:05.251Z,102066.81
2024-01-07T06:53:36.815Z,102069.44
2024-01-07T06:54:09.797Z,102069.44
2024-01-07T06:54:42.834Z,102063.38
2024-01-07T06:55:14.677Z,102071.22
2024-01-07T06:55:47.172Z,102068.38
2024-01-07T06:56:18.773Z,102071.09
2024-01-07T06:56:50.584Z,102073.72
2024-01-07T06:57:22.229Z,102063.25
2024-01-07T06:57:53.898Z,102069.31
2024-01-07T06:58:25.546Z,102062.75
2024-01-07T06:58:57.211Z,102065.47
2024-01-07T06:59:28.896Z,102066.31
2024-01-07T07:00:00.645Z,102065.47
2024-01-07T07:00:32.312Z,102071.53
2024-01-07T07:01:04.710Z,102071.53
2024-01-07T07:01:36.574Z,102068.94
2024-01-07T07:02:08.254Z,102071.75
2024-01-07T07:02:39.980Z,102073.63
2024-01-07T07:03:12.635Z,102062.25
2024-01-07T07:03:44.435Z,102064.03
2024-01-07T07:04:16.253Z,102071.38
2024-01-07T07:04:49.028Z,102081.09
2024-01-07T07:05:20.819Z,102075.53
2024-01-07T07:05:52.493Z,102078.88
2024-01-07T07:06:25.348Z,102078.47
2024-01-07T07:06:58.516Z,102073.03
2024-01-07T07:07:30.137Z,102084.09
2024-01-07T07:08:03.379Z,102081.59
2024-01-07T07:08:34.983Z,102085.88
2024-01-07T07:09:06.595Z,102090.16
2024-01-07T07:09:38.266Z,102091.63
2024-01-07T07:10:10.087Z,102095.28
2024-01-07T07:10:41.920Z,102087.25
2024-01-07T07:11:13.673Z,102092.06
2024-01-07T07:11:45.628Z,102093.72
2024-01-07T07:12:17.315Z,102095.00
2024-01-07T07:12:49.029Z,102092.06
2024-01-07T07:13:20.663Z,102098.94
2024-01-07T07:13:52.240Z,102096.56
2024-01-07T07:14:23.814Z,102097.28
2024-01-07T07:14:55.460Z,102095.72
2024-01-07T07:15:28.941Z,102104.50
2024-01-07T07:16:01.345Z,102102.28
2024-01-07T07:16:33.060Z,102100.31
2024-01-07T07:17:04.945Z,102093.31
2024-01-07T07:17:39.139Z,102103.66
2024-01-07T07:18:10.817Z,102102.94
2024-01-07T07:18:43.414Z,102112.97
2024-01-07T07:19:16.505Z,102095.63
2024-01-07T07:19:48.480Z,102111.06
2024-01-07T07:20:20.838Z,102109.63
2024-01-07T07:20:52.549Z,102102.28
2024-01-07T07:21:24.316Z,102106.06
2024-01-07T07:21:56.054Z,102101.34
2024-01-07T07:22:27.678Z,102103.22
2024-01-07T07:22:59.470Z,102109.19
2024-01-07T07:23:31.836Z,102110.84
2024-01-07T07:24:03.505Z,102107.50
2024-01-07T07:24:35.146Z,102110.03
2024-01-07T07:25:07.358Z,102111.69
2024-01-07T07:25:39.002Z,102112.94
2024-01-07T07:26:10.578Z,102112.94
2024-01-07T07:26:42.349Z,102119.63
2024-01-07T07:27:14.891Z,102111.88
2024-01-07T07:27:46.592Z,102118.81
2024-01-07T07:28:19.004Z,102115.25
2024-01-07T07:28:50.649Z,102120.47
2024-01-07T07:29:22.298Z,102115.44
2024-01-07T07:29:54.084Z,102129.44
2024-01-07T07:30:25.732Z,102124.44
2024-01-07T07:30:57.416Z,102130.50
2024-01-07T07:31:29.120Z,102127.78
2024-01-07T07:32:00.947Z,102129.66
2024-01-07T07:32:32.694Z,102133.94
2024-01-07T07:33:04.600Z,102131.22
2024-01-07T07:33:36.588Z,102133.22
2024-01-07T07:34:10.529Z,102131.31
2024-01-07T07:34:42.353Z,102128.31
2024-01-07T07:35:14.087Z,102135.72
2024-01-07T07:35:45.969Z,102128.19
2024-01-07T07:36:17.617Z,102137.19
2024-01-07T07:36:49.276Z,102133.97
2024-01-07T07:37:21.778Z,102131.97
2024-01-07T07:37:53.589Z,102144.94
2024-01-07T07:38:25.163Z,102138.66
2024-01-07T07:38:56.781Z,102132.59
2024-01-07T07:39:28.369Z,102140.53
2024-01-07T07:40:00.097Z,102139.09
2024-01-07T07:40:31.715Z,102141.69
2024-01-07T07:41:03.435Z,102143.38
2024-01-07T07:41:35.029Z,102145.16
2024-01-07T07:42:06.874Z,102147.66
2024-01-07T07:42:38.557Z,102147.88
2024-01-07T07:43:10.806Z,102146.41
2024-01-07T07:43:42.420Z,102144.75
2024-01-07T07:44:14.067Z,102148.28
2024-01-07T07:44:45.613Z,102150.47
2024-01-07T07:45:17.291Z,102153.31
2024-01-07T07:45:48.989Z,102145.34
2024-01-07T07:46:20.604Z,102146.31
2024-01-07T07:46:52.187Z,102151.41
2024-01-07T07:47:23.817Z,102153.31
2024-01-07T07:47:55.483Z,102155.19
2024-01-07T07:48:27.645Z,102154.13
2024-01-07T07:48:59.361Z,102154.66
2024-01-07T07:49:31.127Z,102158.31
2024-01-07T07:50:03.483Z,102149.03
2024-01-07T07:50:35.184Z,102156.03
2024-01-07T07:51:06.904Z,102156.03
2024-01-07T07:51:38.524Z,102156.66
2024-01-07T07:52:10.538Z,102163.31
2024-01-07T07:52:45.052Z,102164.47
2024-01-07T07:53:16.716Z,102154.75
2024-01-07T07:53:48.384Z,102157.16
2024-01-07T07:54:19.936Z,102163.84
2024-01-07T07:54:51.653Z,102167.50
2024-01-07T07:55:23.418Z,102165.94
2024-01-07T07:55:55.194Z,102165.09
2024-01-07T07:56:26.763Z,102162.59
2024-01-07T07:56:59.425Z,102170.44
2024-01-07T07:57:31.008Z,102169.50
2024-01-07T07:58:02.704Z,102173.78
2024-01-07T07:58:34.482Z,102169.50
2024-01-07T07:59:06.097Z,102167.63
2024-01-07T07:59:37.731Z,102176.41
2024-01-07T08:00:13.975Z,102172.84
2024-01-07T08:00:46.198Z,102177.13
2024-01-07T08:01:19.873Z,102174.63
2024-01-07T08:01:51.940Z,102166.88
2024-01-07T08:02:23.610Z,102172.84
2024-01-07T08:02:55.233Z,102171.50
2024-01-07T08:03:27.003Z,102175.66
2024-01-07T08:03:58.786Z,102168.75
2024-01-07T08:04:30.660Z,102170.22
2024-01-07T08:05:02.418Z,102173.78
2024-01-07T08:05:34.266Z,102171.28
2024-01-07T08:06:07.603Z,102167.09
2024-01-07T08:06:40.681Z,102174.72
2024-01-07T08:07:12.418Z,102181.28
2024-01-07T08:07:44.159Z,102177.84
2024-01-07T08:08:15.741Z,102183.81
2024-01-07T08:08:47.361Z,102172.50